Time;durP1;ratioP1;P1;durP2;ratioP2;P2;SDS_P1;SDS_P2;PMS_P1;PMS_P2;Temp;Humidity;BMP_temperature;BMP_pressure;BME280_temperature;BME280_humidity;BME280_pressure;Samples;Min_cycle;Max_cycle;Signal;HPM_P1;HPM_P2
2021/11/08 00:01:36;;;;;;;;;24.25;22.75;;;;;-147.17;100.00;49387.41;5081822;27;50537;-70
2021/11/08 00:04:03;;;;;;;;;28.75;27.25;;;;;-147.17;100.00;49355.94;5064072;28;51241;-70
2021/11/08 00:06:28;;;;;;;;;16.50;15.00;;;;;-147.17;100.00;49395.28;5080020;28;51144;-69
2021/11/08 00:08:54;;;;;;;;;25.00;19.25;;;;;-147.17;100.00;49359.84;5060623;28;51953;-69
2021/11/08 00:11:19;;;;;;;;;15.50;15.50;;;;;-147.17;100.00;49389.38;5080069;28;50947;-69
2021/11/08 00:13:45;;;;;;;;;39.50;36.50;;;;;-147.17;100.00;49414.97;5076547;27;51110;-66
2021/11/08 00:21:33;;;;;;;;;22.00;21.50;;;;;-147.17;100.00;49446.47;5072727;28;51054;-68
2021/11/08 00:23:59;;;;;;;;;39.00;37.00;;;;;-147.17;100.00;49411.03;5055950;28;51296;-67
2021/11/08 00:26:26;;;;;;;;;22.00;16.00;;;;;-147.17;100.00;49442.53;5071784;28;50938;-67
2021/11/08 00:28:52;;;;;;;;;19.25;17.75;;;;;-147.17;100.00;49438.59;5071788;28;53178;-66
2021/11/08 00:31:18;;;;;;;;;16.00;14.75;;;;;-147.17;100.00;49434.66;5074235;28;51007;-66
2021/11/08 00:33:43;;;;;;;;;17.25;15.75;;;;;-147.17;100.00;49446.47;5051449;28;52724;-66
2021/11/08 00:36:09;;;;;;;;;18.00;16.00;;;;;-147.17;100.00;49464.16;5076735;27;51288;-70
2021/11/08 00:38:34;;;;;;;;;14.25;12.00;;;;;-147.17;100.00;49472.03;5071838;28;51129;-66
2021/11/08 00:41:01;;;;;;;;;15.25;14.50;;;;;-147.17;100.00;49454.31;5070919;28;51081;-66
2021/11/08 00:43:28;;;;;;;;;17.50;16.50;;;;;-147.17;100.00;49458.25;5072175;28;51094;-66
2021/11/08 00:45:54;;;;;;;;;16.50;14.50;;;;;-147.17;100.00;49475.97;5055419;28;51095;-65
2021/11/08 00:48:22;;;;;;;;;15.75;14.75;;;;;-147.17;100.00;49483.84;5072801;28;51073;-67
2021/11/08 00:50:49;;;;;;;;;18.50;15.00;;;;;-147.17;100.00;49470.06;5069943;28;51232;-66
2021/11/08 00:53:15;;;;;;;;;20.50;18.00;;;;;-147.17;100.00;49491.72;5071671;28;51174;-67
2021/11/08 00:55:42;;;;;;;;;14.00;12.75;;;;;-147.17;100.00;49505.50;5075161;28;51549;-69
2021/11/08 00:58:14;;;;;;;;;14.50;12.25;;;;;-147.17;100.00;49495.66;5074260;28;51874;-67
2021/11/08 01:00:40;;;;;;;;;15.25;12.25;;;;;-147.17;100.00;49499.59;5071523;27;50983;-67
2021/11/08 01:03:07;;;;;;;;;9.75;9.00;;;;;-147.17;100.00;49497.63;5072895;27;50914;-67
2021/11/08 01:05:33;;;;;;;;;15.00;12.75;;;;;-147.17;100.00;49503.53;5072694;28;51166;-67
2021/11/08 01:07:59;;;;;;;;;14.00;11.00;;;;;-147.17;100.00;49503.53;5069945;28;51177;-68
2021/11/08 01:10:25;;;;;;;;;12.00;10.25;;;;;-147.17;100.00;49523.22;5073244;28;51104;-68
2021/11/08 01:12:51;;;;;;;;;15.25;14.75;;;;;-147.17;100.00;49568.47;5054117;28;51090;-70
2021/11/08 01:15:16;;;;;;;;;12.75;11.25;;;;;-147.17;100.00;49560.59;5074000;28;51052;-70
2021/11/08 01:17:42;;;;;;;;;14.00;11.75;;;;;-147.17;100.00;49568.47;5073003;28;51841;-68
2021/11/08 01:20:09;;;;;;;;;12.75;12.25;;;;;-147.17;100.00;49560.59;5074221;28;51245;-68
2021/11/08 01:22:36;;;;;;;;;9.50;9.50;;;;;-147.17;100.00;49576.34;5069113;28;51109;-68
2021/11/08 01:25:04;;;;;;;;;10.00;9.75;;;;;-147.17;100.00;49588.16;5068122;27;51275;-66
2021/11/08 01:27:53;;;;;;;;;14.75;14.25;;;;;-147.17;100.00;49592.09;5072026;27;51201;-65
2021/11/08 01:30:24;;;;;;;;;12.00;10.75;;;;;-147.17;100.00;49609.81;5072293;28;51195;-67
2021/11/08 01:33:00;;;;;;;;;10.50;9.75;;;;;-147.17;100.00;49609.81;5069834;28;51222;-67
2021/11/08 01:35:38;;;;;;;;;14.50;13.75;;;;;-147.17;100.00;49594.06;5073791;28;51156;-66
2021/11/08 01:38:08;;;;;;;;;15.50;14.75;;;;;-147.17;100.00;49627.53;5071801;28;51114;-66
2021/11/08 01:40:35;;;;;;;;;15.50;10.50;;;;;-147.17;100.00;49662.94;5070133;28;50896;-68
2021/11/08 01:43:02;;;;;;;;;15.75;14.00;;;;;-147.17;100.00;49678.69;5071770;28;51232;-66
2021/11/08 01:45:28;;;;;;;;;16.00;15.50;;;;;-147.17;100.00;49664.91;5071441;28;51350;-66
2021/11/08 01:47:53;;;;;;;;;15.25;13.00;;;;;-147.17;100.00;49659.03;5072574;28;51693;-67
2021/11/08 01:50:19;;;;;;;;;11.25;11.25;;;;;-147.17;100.00;49684.59;5050280;28;51516;-67
2021/11/08 01:52:44;;;;;;;;;15.75;12.00;;;;;-147.17;100.00;49690.50;5049359;28;51185;-66
2021/11/08 01:55:10;;;;;;;;;11.50;11.50;;;;;-147.17;100.00;49698.38;5060715;28;50849;-66
2021/11/08 01:57:37;;;;;;;;;14.00;12.50;;;;;-147.17;100.00;49722.00;5071745;28;52327;-68
2021/11/08 02:00:08;;;;;;;;;12.25;11.00;;;;;-147.17;100.00;49690.50;5070290;28;51381;-66
2021/11/08 02:02:34;;;;;;;;;15.75;13.25;;;;;-147.17;100.00;49725.94;5099011;27;51245;-66
2021/11/08 02:05:02;;;;;;;;;11.50;11.50;;;;;-147.17;100.00;49720.03;5090991;27;50932;-66
2021/11/08 02:07:28;;;;;;;;;13.00;12.75;;;;;-147.17;100.00;49731.84;5092089;27;51046;-65
2021/11/08 02:09:55;;;;;;;;;14.75;12.75;;;;;-147.17;100.00;49714.13;5086790;27;51078;-67
2021/11/08 02:12:20;;;;;;;;;16.25;15.75;;;;;-147.17;100.00;49725.94;5090401;27;50935;-67
2021/11/08 02:14:46;;;;;;;;;13.75;13.25;;;;;-147.17;100.00;49725.94;5092349;27;51021;-67
2021/11/08 02:17:11;;;;;;;;;14.75;14.00;;;;;-147.17;100.00;49771.22;5090187;27;52583;-67
2021/11/08 02:19:37;;;;;;;;;15.75;15.25;;;;;-147.17;100.00;49753.50;5091147;27;51203;-67
2021/11/08 02:22:03;;;;;;;;;16.00;15.00;;;;;-147.17;100.00;49739.72;5092714;27;51203;-67
2021/11/08 02:24:30;;;;;;;;;17.50;16.00;;;;;-147.17;100.00;49741.69;5089753;27;50947;-67
2021/11/08 02:26:56;;;;;;;;;15.50;14.25;;;;;-147.17;100.00;49773.19;5091183;27;51296;-67
2021/11/08 02:29:22;;;;;;;;;14.50;13.75;;;;;-147.17;100.00;49737.75;5087530;27;51329;-67
2021/11/08 02:31:50;;;;;;;;;15.50;13.75;;;;;-147.17;100.00;49757.44;5090530;27;51313;-66
2021/11/08 02:34:16;;;;;;;;;12.50;11.75;;;;;-147.17;100.00;49773.19;5083084;27;50989;-66
2021/11/08 02:36:42;;;;;;;;;12.75;11.25;;;;;-147.17;100.00;49769.25;5091646;27;51364;-67
2021/11/08 02:39:27;;;;;;;;;11.00;10.25;;;;;-147.17;100.00;49757.44;5092336;27;51032;-67
2021/11/08 02:41:53;;;;;;;;;14.75;13.25;;;;;-147.17;100.00;49763.34;5091578;27;51387;-66
2021/11/08 02:44:18;;;;;;;;;14.50;10.25;;;;;-147.17;100.00;49761.38;5092645;27;51271;-66
2021/11/08 02:46:45;;;;;;;;;14.75;13.50;;;;;-147.17;100.00;49781.06;5092358;27;51990;-66
2021/11/08 02:49:13;;;;;;;;;12.75;10.00;;;;;-147.17;100.00;49796.78;5092571;27;51016;-66
2021/11/08 02:51:43;;;;;;;;;13.50;13.00;;;;;-147.17;100.00;49769.25;5092081;27;51293;-67
2021/11/08 02:54:23;;;;;;;;;13.75;12.75;;;;;-147.17;100.00;49761.38;5091383;27;51252;-67
2021/11/08 02:56:49;;;;;;;;;20.00;16.00;;;;;-147.17;100.00;49769.25;5083411;27;51078;-67
2021/11/08 02:59:15;;;;;;;;;13.00;11.00;;;;;-147.17;100.00;49786.94;5091176;27;51189;-66
2021/11/08 03:01:40;;;;;;;;;10.75;9.25;;;;;-147.17;100.00;49824.34;5082034;27;51458;-67
2021/11/08 03:04:13;;;;;;;;;14.00;13.25;;;;;-147.17;100.00;49767.28;5071034;28;51313;-67
2021/11/08 03:06:38;;;;;;;;;12.25;10.50;;;;;-147.17;100.00;49800.72;5074221;28;51211;-67
2021/11/08 03:09:14;;;;;;;;;12.00;11.75;;;;;-147.17;100.00;49814.50;5073173;28;51130;-67
2021/11/08 03:11:39;;;;;;;;;13.00;11.50;;;;;-147.17;100.00;49765.31;5072279;27;51154;-67
2021/11/08 03:14:06;;;;;;;;;14.25;13.50;;;;;-147.17;100.00;49800.72;5075451;28;51131;-67
2021/11/08 03:16:45;;;;;;;;;10.75;10.00;;;;;-147.17;100.00;49800.72;5072334;28;52334;-67
2021/11/08 03:19:23;;;;;;;;;17.25;14.00;;;;;-147.17;100.00;49836.16;5059344;28;50951;-67
2021/11/08 03:21:50;;;;;;;;;14.25;12.75;;;;;-147.17;100.00;49804.66;5070175;27;51526;-68
2021/11/08 03:24:22;;;;;;;;;13.75;10.00;;;;;-147.17;100.00;49840.09;5057145;28;51079;-67
2021/11/08 03:26:51;;;;;;;;;14.75;13.75;;;;;-147.17;100.00;49822.38;5074797;28;51006;-67
2021/11/08 03:29:19;;;;;;;;;14.25;12.00;;;;;-147.17;100.00;49844.03;5073048;27;52390;-66
2021/11/08 03:31:49;;;;;;;;;15.25;13.50;;;;;-147.17;100.00;49826.31;5072524;28;50915;-68
2021/11/08 03:34:15;;;;;;;;;10.75;10.00;;;;;-147.17;100.00;49810.56;5075065;28;51228;-67
2021/11/08 03:36:40;;;;;;;;;10.25;9.50;;;;;-147.17;100.00;49840.09;5038380;28;53230;-67
2021/11/08 03:39:06;;;;;;;;;14.25;13.75;;;;;-147.17;100.00;49842.06;5074915;28;50963;-66
2021/11/08 03:41:32;;;;;;;;;12.50;11.00;;;;;-147.17;100.00;49816.47;5050655;28;51164;-66
2021/11/08 03:43:59;;;;;;;;;12.25;11.00;;;;;-147.17;100.00;49851.91;5073728;28;50967;-66
2021/11/08 03:46:24;;;;;;;;;15.50;14.50;;;;;-147.17;100.00;49818.44;5074291;28;51172;-67
2021/11/08 03:48:50;;;;;;;;;10.00;9.50;;;;;-147.17;100.00;49863.72;5073002;28;50980;-68
2021/11/08 03:51:15;;;;;;;;;10.00;10.00;;;;;-147.17;100.00;49818.44;5073904;28;51114;-67
2021/11/08 03:53:41;;;;;;;;;16.50;13.50;;;;;-147.17;100.00;49844.03;5074658;28;51388;-66
2021/11/08 03:56:07;;;;;;;;;13.00;11.50;;;;;-147.17;100.00;49859.78;5071731;28;51890;-66
2021/11/08 03:58:33;;;;;;;;;10.25;9.50;;;;;-147.17;100.00;49832.22;5074599;28;51164;-66
2021/11/08 04:00:59;;;;;;;;;13.25;12.50;;;;;-147.17;100.00;49816.47;5076885;27;51272;-66
2021/11/08 04:03:25;;;;;;;;;13.25;13.00;;;;;-147.17;100.00;49877.50;5085200;27;51114;-67
2021/11/08 04:05:51;;;;;;;;;10.75;10.00;;;;;-147.17;100.00;49865.69;5076318;27;53050;-67
2021/11/08 04:08:20;;;;;;;;;16.00;13.00;;;;;-147.17;100.00;49830.25;5093614;27;51290;-67
2021/11/08 04:10:48;;;;;;;;;12.75;11.25;;;;;-147.17;100.00;49863.72;5091769;27;51062;-67
2021/11/08 04:13:13;;;;;;;;;11.25;10.00;;;;;-147.17;100.00;49875.53;5093491;27;51335;-68
2021/11/08 04:15:43;;;;;;;;;10.25;9.75;;;;;-147.17;100.00;49867.66;5093669;27;51783;-68
2021/11/08 04:18:13;;;;;;;;;10.25;9.75;;;;;-147.17;100.00;49849.94;5092182;27;51277;-68
2021/11/08 04:20:41;;;;;;;;;15.00;12.00;;;;;-147.17;100.00;49867.66;5094450;27;51199;-68
2021/11/08 04:23:08;;;;;;;;;13.00;10.75;;;;;-147.17;100.00;49834.19;5069992;27;51226;-68
2021/11/08 04:25:33;;;;;;;;;11.00;10.00;;;;;-147.17;100.00;49851.91;5058837;27;54576;-67
2021/11/08 04:27:59;;;;;;;;;10.25;10.25;;;;;-147.17;100.00;49879.47;5093752;27;51152;-68
2021/11/08 04:30:26;;;;;;;;;15.00;12.00;;;;;-147.17;100.00;49875.53;5094223;27;51113;-68
2021/11/08 04:35:42;;;;;;;;;13.50;11.00;;;;;-147.17;100.00;49863.72;5091619;27;51664;-68
2021/11/08 04:38:25;;;;;;;;;12.25;11.00;;;;;-147.17;100.00;49859.78;5092813;27;51064;-68
2021/11/08 04:41:19;;;;;;;;;15.25;13.75;;;;;-147.17;100.00;49867.66;5075370;27;51188;-68
2021/11/08 05:31:40;;;;;;;;;13.50;12.00;;;;;-147.17;100.00;49899.16;5038988;28;51373;-67
2021/11/08 05:34:07;;;;;;;;;13.50;11.25;;;;;-147.17;100.00;49907.03;5054601;27;51292;-67
2021/11/08 05:36:32;;;;;;;;;14.00;12.00;;;;;-147.17;100.00;49881.44;5074277;27;51385;-68
2021/11/08 05:39:00;;;;;;;;;12.25;10.00;;;;;-147.17;100.00;49863.72;5056130;27;51113;-68
2021/11/08 05:41:25;;;;;;;;;13.25;10.75;;;;;-147.17;100.00;49924.72;5059809;27;51334;-68
2021/11/08 05:43:51;;;;;;;;;11.25;10.25;;;;;-147.17;100.00;49932.59;5056575;27;51241;-69
2021/11/08 05:46:19;;;;;;;;;12.75;10.50;;;;;-147.17;100.00;49922.78;5057535;27;51474;-67
2021/11/08 05:48:45;;;;;;;;;11.50;11.25;;;;;-147.17;100.00;49920.81;5057981;27;51213;-68
2021/11/08 05:51:10;;;;;;;;;16.00;14.50;;;;;-147.17;100.00;49920.81;5056271;27;51235;-67
2021/11/08 05:53:37;;;;;;;;;13.75;12.75;;;;;-147.17;100.00;49877.50;5055428;27;51161;-68
2021/11/08 06:50:19;;;;;;;;;14.00;12.25;;;;;-147.17;100.00;49940.47;5056932;27;51199;-66
2021/11/08 06:52:50;;;;;;;;;10.25;9.75;;;;;-147.17;100.00;49960.16;5061619;27;51835;-67
2021/11/08 06:55:16;;;;;;;;;11.25;11.00;;;;;-147.17;100.00;49973.94;5059118;27;52483;-71
2021/11/08 06:57:46;;;;;;;;;15.75;14.00;;;;;-147.17;100.00;49958.19;5042316;27;51369;-66
2021/11/08 07:00:15;;;;;;;;;11.50;11.25;;;;;-147.17;100.00;49964.09;5056960;27;53362;-66
2021/11/08 07:02:40;;;;;;;;;14.00;11.00;;;;;-147.17;100.00;49962.13;5076760;27;51375;-67
2021/11/08 07:05:06;;;;;;;;;9.00;8.00;;;;;-147.17;100.00;49958.19;5076650;27;51147;-68
2021/11/08 07:07:31;;;;;;;;;11.75;11.00;;;;;-147.17;100.00;49970.00;5078000;27;51433;-66
2021/11/08 07:09:57;;;;;;;;;10.50;9.75;;;;;-147.17;100.00;49942.44;5079429;27;51239;-67
2021/11/08 07:12:22;;;;;;;;;14.00;12.25;;;;;-147.17;100.00;49924.72;5076949;27;52073;-67
2021/11/08 07:14:48;;;;;;;;;16.25;13.75;;;;;-147.17;100.00;49922.78;5077909;27;51188;-65
2021/11/08 07:17:13;;;;;;;;;13.75;13.00;;;;;-147.17;100.00;49993.63;5074157;27;52750;-65
2021/11/08 07:19:39;;;;;;;;;16.75;15.00;;;;;-147.17;100.00;49938.50;5077365;27;51960;-67
2021/11/08 07:22:05;;;;;;;;;12.75;11.25;;;;;-147.17;100.00;49993.63;5077293;27;52854;-66
2021/11/08 07:24:30;;;;;;;;;16.25;15.75;;;;;-147.17;100.00;49958.19;5081015;27;53478;-65
2021/11/08 07:26:56;;;;;;;;;21.75;20.50;;;;;-147.17;100.00;49920.81;5080982;27;51155;-65
2021/11/08 07:29:22;;;;;;;;;13.50;11.00;;;;;-147.17;100.00;49897.19;5078082;27;51345;-65
2021/11/08 07:31:48;;;;;;;;;11.00;10.75;;;;;-147.17;100.00;49930.63;5076764;27;51336;-65
2021/11/08 07:34:14;;;;;;;;;13.50;11.50;;;;;-147.17;100.00;49966.06;5075476;27;53267;-69
2021/11/08 07:36:40;;;;;;;;;13.00;9.75;;;;;-147.17;100.00;49958.19;5090335;27;51266;-67
2021/11/08 07:39:06;;;;;;;;;13.75;12.75;;;;;-147.17;100.00;49954.25;5076772;27;51231;-65
2021/11/08 07:41:32;;;;;;;;;20.00;15.75;;;;;-147.17;100.00;49979.84;5076176;27;52143;-67
2021/11/08 07:43:57;;;;;;;;;17.25;14.25;;;;;-147.17;100.00;49964.09;5076687;27;51522;-65
2021/11/08 07:46:23;;;;;;;;;12.25;11.00;;;;;-147.17;100.00;49960.16;5076258;27;51313;-67
2021/11/08 07:48:48;;;;;;;;;13.25;11.00;;;;;-147.17;100.00;49938.50;5073149;27;51285;-69
2021/11/08 07:51:16;;;;;;;;;12.50;12.25;;;;;-147.17;100.00;50001.50;5076927;27;51137;-68
2021/11/08 07:53:42;;;;;;;;;15.75;12.50;;;;;-147.17;100.00;49999.53;5076031;27;53443;-69
2021/11/08 07:56:09;;;;;;;;;13.50;10.00;;;;;-147.17;100.00;49950.31;5075260;27;51287;-68
2021/11/08 07:58:35;;;;;;;;;15.00;14.50;;;;;-147.17;100.00;49956.22;5079655;27;51254;-68
2021/11/08 08:01:01;;;;;;;;;11.00;10.75;;;;;-147.17;100.00;50005.44;5076677;27;52002;-68
2021/11/08 08:03:27;;;;;;;;;18.00;16.25;;;;;-147.17;100.00;50019.22;5076352;27;51203;-67
2021/11/08 08:05:55;;;;;;;;;12.25;11.25;;;;;-147.17;100.00;49966.06;5073886;27;51587;-70
2021/11/08 08:08:21;;;;;;;;;18.00;16.50;;;;;-147.17;100.00;50013.31;5071272;27;51150;-66
2021/11/08 08:10:49;;;;;;;;;15.50;12.00;;;;;-147.17;100.00;49995.59;5077889;27;51375;-67
2021/11/08 08:13:19;;;;;;;;;15.00;12.75;;;;;-147.17;100.00;49973.94;5108178;27;51174;-63
2021/11/08 08:15:44;;;;;;;;;18.25;18.00;;;;;-147.17;100.00;49973.94;5077191;27;51626;-65
2021/11/08 08:18:11;;;;;;;;;17.00;15.75;;;;;-147.17;100.00;49973.94;5110623;27;53060;-65
2021/11/08 08:20:36;;;;;;;;;18.25;17.25;;;;;-147.17;100.00;49989.69;5075346;27;51167;-64
2021/11/08 08:23:02;;;;;;;;;17.50;17.50;;;;;-147.17;100.00;49918.84;5075528;27;51163;-67
2021/11/08 08:25:28;;;;;;;;;20.00;18.50;;;;;-147.17;100.00;49918.84;5080468;27;51351;-66
2021/11/08 08:27:54;;;;;;;;;17.00;15.75;;;;;-147.17;100.00;49989.69;5076672;27;51104;-66
2021/11/08 08:30:19;;;;;;;;;18.25;15.75;;;;;-147.17;100.00;49952.28;5075404;27;53432;-66
2021/11/08 08:32:45;;;;;;;;;19.50;17.00;;;;;-147.17;100.00;50029.06;5078087;27;51265;-66
2021/11/08 08:35:11;;;;;;;;;23.00;21.00;;;;;-147.17;100.00;50042.84;5077140;27;51391;-66
2021/11/08 08:37:36;;;;;;;;;20.25;19.25;;;;;-147.17;100.00;50038.91;5080937;27;51204;-67
2021/11/08 08:40:03;;;;;;;;;20.25;16.00;;;;;-147.17;100.00;50031.03;5076072;27;51135;-65
2021/11/08 08:42:28;;;;;;;;;19.75;17.50;;;;;-147.17;100.00;50013.31;5073170;27;51456;-66
2021/11/08 08:44:54;;;;;;;;;20.75;17.50;;;;;-147.17;100.00;50070.41;5077545;27;51809;-66
2021/11/08 08:47:21;;;;;;;;;15.75;15.50;;;;;-147.17;100.00;50064.50;5075858;27;51377;-66
2021/11/08 08:49:47;;;;;;;;;17.25;14.50;;;;;-147.17;100.00;50092.03;5074081;27;52387;-66
2021/11/08 08:52:13;;;;;;;;;17.75;15.50;;;;;-147.17;100.00;50088.13;5076141;27;51343;-67
2021/11/08 08:54:39;;;;;;;;;17.00;15.75;;;;;-147.17;100.00;50107.78;5079947;27;51263;-68
2021/11/08 08:57:06;;;;;;;;;16.25;14.25;;;;;-147.17;100.00;50084.19;5077285;27;52390;-69
2021/11/08 08:59:32;;;;;;;;;20.00;16.25;;;;;-147.17;100.00;50062.53;5072502;27;52317;-68
2021/11/08 09:01:57;;;;;;;;;16.00;15.25;;;;;-147.17;100.00;50119.59;5077670;27;51377;-64
2021/11/08 09:04:24;;;;;;;;;17.00;14.25;;;;;-147.17;100.00;50052.69;5077171;27;51286;-68
2021/11/08 09:06:50;;;;;;;;;17.75;17.00;;;;;-147.17;100.00;50060.56;5074870;27;51448;-71
2021/11/08 09:09:15;;;;;;;;;19.75;19.75;;;;;-147.17;100.00;50056.63;5073829;27;51895;-71
2021/11/08 09:11:41;;;;;;;;;17.75;16.00;;;;;-147.17;100.00;50086.16;5078028;27;53350;-69
2021/11/08 09:14:06;;;;;;;;;14.00;13.33;;;;;-147.17;100.00;50072.38;5079557;27;53147;-70
2021/11/08 09:16:34;;;;;;;;;16.50;15.00;;;;;-147.17;100.00;50092.03;5077671;27;51265;-67
2021/11/08 09:19:00;;;;;;;;;15.50;14.50;;;;;-147.17;100.00;50070.41;5075655;27;51271;-73
2021/11/08 09:21:30;;;;;;;;;18.00;15.75;;;;;-147.17;100.00;50084.19;5078935;27;51355;-73
2021/11/08 09:23:57;;;;;;;;;12.33;11.33;;;;;-147.17;100.00;50064.50;5077559;27;51163;-78
2021/11/08 09:26:24;;;;;;;;;16.75;14.00;;;;;-147.17;100.00;50084.19;5077777;27;53289;-78
2021/11/08 09:28:50;;;;;;;;;23.00;20.00;;;;;-147.17;100.00;50062.53;5079102;27;51290;-77
2021/11/08 09:31:17;;;;;;;;;18.25;16.25;;;;;-147.17;100.00;50135.34;5078380;27;51386;-77
2021/11/08 09:33:43;;;;;;;;;19.50;19.25;;;;;-147.17;100.00;50068.44;5079098;27;52447;-77
2021/11/08 09:36:09;;;;;;;;;22.00;20.00;;;;;-147.17;100.00;50060.56;5081310;27;51268;-78
2021/11/08 09:38:38;;;;;;;;;19.50;19.50;;;;;-147.17;100.00;50064.50;5076409;27;53941;-77
2021/11/08 09:41:08;;;;;;;;;21.00;20.25;;;;;-147.17;100.00;50064.50;5086635;27;51070;-77
2021/11/08 09:43:36;;;;;;;;;22.75;19.25;;;;;-147.17;100.00;50099.91;5089125;27;51249;-77
2021/11/08 09:46:02;;;;;;;;;17.75;15.75;;;;;-147.17;100.00;50111.72;5093778;27;50990;-78
2021/11/08 09:48:29;;;;;;;;;20.50;19.00;;;;;-147.17;100.00;50123.53;5095752;27;51230;-79
2021/11/08 09:50:57;;;;;;;;;18.75;15.00;;;;;-147.17;100.00;50095.97;5089235;27;51222;-77
2021/11/08 09:53:22;;;;;;;;;18.00;17.75;;;;;-147.17;100.00;50103.84;5067478;27;51256;-78
2021/11/08 09:55:48;;;;;;;;;21.25;16.50;;;;;-147.17;100.00;50099.91;5088881;27;51302;-77
2021/11/08 09:58:14;;;;;;;;;21.00;18.75;;;;;-147.17;100.00;50076.31;5090789;27;51192;-78
2021/11/08 10:00:52;;;;;;;;;22.25;18.50;;;;;-147.17;100.00;50111.72;5084881;27;51290;-78
2021/11/08 10:03:24;;;;;;;;;19.00;16.00;;;;;-147.17;100.00;50072.38;5084186;27;51307;-78
2021/11/08 10:05:52;;;;;;;;;22.25;19.00;;;;;-147.17;100.00;50119.59;5079076;27;51282;-78
2021/11/08 10:08:23;;;;;;;;;17.00;16.00;;;;;-147.17;100.00;50149.13;5080264;27;52164;-78
2021/11/08 10:10:52;;;;;;;;;18.25;17.00;;;;;-147.17;100.00;50052.69;5110765;27;53097;-78
2021/11/08 10:13:20;;;;;;;;;16.75;15.50;;;;;-147.17;100.00;50080.25;5077610;27;51269;-78
2021/11/08 10:15:51;;;;;;;;;21.50;20.00;;;;;-147.17;100.00;50056.63;5110678;27;53190;-78
2021/11/08 10:18:18;;;;;;;;;20.50;17.00;;;;;-147.17;100.00;49995.59;5077098;27;51287;-79
2021/11/08 10:20:51;;;;;;;;;20.00;18.00;;;;;-147.17;100.00;50013.31;5076737;27;53105;-78
2021/11/08 10:23:19;;;;;;;;;19.50;19.50;;;;;-147.17;100.00;49944.41;5078500;27;51193;-78
2021/11/08 10:25:46;;;;;;;;;19.50;17.25;;;;;-147.17;100.00;49934.56;5081021;27;51579;-78
2021/11/08 10:28:15;;;;;;;;;17.50;16.50;;;;;-147.17;100.00;49867.66;5078186;27;51451;-78
2021/11/08 10:30:42;;;;;;;;;11.67;9.00;;;;;-147.17;100.00;49806.63;5078822;27;51193;-78
2021/11/08 10:33:08;;;;;;;;;15.00;13.33;;;;;-147.17;100.00;49808.59;5061444;27;51513;-80
2021/11/08 10:35:55;;;;;;;;;16.33;13.67;;;;;-147.17;100.00;49922.78;5077302;27;51344;-77
2021/11/08 10:38:30;;;;;;;;;12.00;10.67;;;;;-147.17;100.00;49981.81;5074764;27;52041;-80
2021/11/08 10:41:05;;;;;;;;;15.33;14.33;;;;;-147.17;100.00;50009.38;5075978;27;51126;-76
2021/11/08 10:43:35;;;;;;;;;13.33;12.33;;;;;-147.17;100.00;49981.81;5076490;27;51351;-78
2021/11/08 10:46:12;;;;;;;;;16.00;14.00;;;;;-147.17;100.00;49962.13;5074521;27;51152;-78
2021/11/08 10:48:50;;;;;;;;;11.33;10.67;;;;;-147.17;100.00;50007.41;5073227;27;51969;-78
2021/11/08 10:51:19;;;;;;;;;13.33;12.33;;;;;-147.17;100.00;50003.47;5075413;27;51186;-77
2021/11/08 10:53:57;;;;;;;;;12.33;12.00;;;;;-147.17;100.00;50092.03;5075376;27;51322;-76
2021/11/08 10:56:27;;;;;;;;;10.00;10.00;;;;;-147.17;100.00;49922.78;5076927;27;51265;-78
2021/11/08 10:58:55;;;;;;;;;16.00;13.00;;;;;-147.17;100.00;49946.38;5073286;27;51907;-76
2021/11/08 11:01:24;;;;;;;;;10.00;8.67;;;;;-147.17;100.00;49897.19;5078462;27;51347;-76
2021/11/08 11:03:54;;;;;;;;;10.33;10.00;;;;;-147.17;100.00;49747.59;5079059;27;53293;-76
2021/11/08 11:06:31;;;;;;;;;14.67;12.00;;;;;-147.17;100.00;49763.34;5079228;27;51407;-77
2021/11/08 11:09:00;;;;;;;;;9.00;8.67;;;;;-147.17;100.00;49706.25;5079795;27;53375;-78
2021/11/08 11:11:25;;;;;;;;;6.00;6.00;;;;;-147.17;100.00;49680.66;5079734;27;53175;-78
2021/11/08 11:13:53;;;;;;;;;6.00;5.33;;;;;-147.17;100.00;49596.03;5079045;27;51255;-77
2021/11/08 11:16:32;;;;;;;;;7.00;7.00;;;;;-147.17;100.00;49537.00;5076261;27;51425;-78
2021/11/08 11:19:00;;;;;;;;;5.67;5.67;;;;;-147.17;100.00;49544.88;5074402;27;53396;-77
2021/11/08 11:21:26;;;;;;;;;5.00;5.00;;;;;-147.17;100.00;49588.16;5073730;27;51352;-76
2021/11/08 11:23:52;;;;;;;;;7.00;6.00;;;;;-147.17;100.00;49517.31;5079563;27;51402;-76
2021/11/08 11:26:23;;;;;;;;;6.67;6.67;;;;;-147.17;100.00;49568.47;5075385;27;51372;-77
2021/11/08 11:28:50;;;;;;;;;6.00;5.00;;;;;-147.17;100.00;49562.56;5081734;27;52938;-77
2021/11/08 11:31:20;;;;;;;;;7.00;6.33;;;;;-147.17;100.00;49505.50;5077854;27;51270;-76
2021/11/08 11:33:47;;;;;;;;;6.00;5.67;;;;;-147.17;100.00;49438.59;5077760;27;51198;-76
2021/11/08 11:36:18;;;;;;;;;7.67;7.00;;;;;-147.17;100.00;49503.53;5093675;27;51580;-77
2021/11/08 11:38:49;;;;;;;;;5.00;5.00;;;;;-147.17;100.00;49556.66;5077619;27;51379;-76
2021/11/08 11:41:21;;;;;;;;;6.33;5.33;;;;;-147.17;100.00;49452.34;5076990;27;51183;-78
2021/11/08 11:44:07;;;;;;;;;7.00;6.00;;;;;-147.17;100.00;49422.84;5077230;27;51287;-77
2021/11/08 11:46:44;;;;;;;;;8.00;7.00;;;;;-147.17;100.00;49428.75;5080771;27;53310;-77
2021/11/08 11:49:11;;;;;;;;;6.00;5.00;;;;;-147.17;100.00;49407.09;5080059;27;53283;-77
2021/11/08 11:51:52;;;;;;;;;5.67;5.67;;;;;-147.17;100.00;49452.34;5076689;27;51343;-77
2021/11/08 11:54:20;;;;;;;;;6.33;5.67;;;;;-147.17;100.00;49438.59;5077165;27;51267;-78
2021/11/08 11:56:49;;;;;;;;;6.67;5.00;;;;;-147.17;100.00;49426.78;5064819;27;53325;-77
2021/11/08 11:59:17;;;;;;;;;6.00;5.00;;;;;-147.17;100.00;49446.47;5077028;27;53323;-78
2021/11/08 12:01:44;;;;;;;;;7.67;6.67;;;;;-147.17;100.00;49414.97;5075588;27;51180;-77
2021/11/08 12:04:12;;;;;;;;;5.00;5.00;;;;;-147.17;100.00;49416.94;5080965;27;51260;-78
2021/11/08 12:06:42;;;;;;;;;6.33;5.67;;;;;-147.17;100.00;49379.53;5078936;27;51481;-77
2021/11/08 12:09:12;;;;;;;;;7.67;5.00;;;;;-147.17;100.00;49365.75;5076799;27;51990;-77
2021/11/08 12:11:49;;;;;;;;;6.33;5.67;;;;;-147.17;100.00;49342.16;5081170;27;51169;-78
2021/11/08 12:14:35;;;;;;;;;8.00;7.00;;;;;-147.17;100.00;49418.91;5076388;27;51253;-77
2021/11/08 12:17:05;;;;;;;;;9.33;7.00;;;;;-147.17;100.00;49407.09;5077163;27;51344;-77
2021/11/08 12:19:37;;;;;;;;;10.00;8.33;;;;;-147.17;100.00;49330.34;5075584;27;52152;-79
2021/11/08 12:22:18;;;;;;;;;7.00;7.00;;;;;-147.17;100.00;49320.50;5078371;27;51196;-78
2021/11/08 12:24:57;;;;;;;;;24.50;22.75;;;;;-147.17;100.00;49292.94;5077453;27;53191;-77
2021/11/08 12:27:33;;;;;;;;;9.00;9.00;;;;;-147.17;100.00;49259.50;5078579;27;51132;-76
2021/11/08 12:29:59;;;;;;;;;8.00;7.00;;;;;-147.17;100.00;49322.47;5094509;27;52999;-72
2021/11/08 12:32:25;;;;;;;;;6.33;6.00;;;;;-147.17;100.00;49247.69;5076151;27;51396;-69
2021/11/08 12:34:54;;;;;;;;;8.33;7.67;;;;;-147.17;100.00;49296.88;5075751;27;51287;-69
2021/11/08 12:37:32;;;;;;;;;9.00;8.33;;;;;-147.17;100.00;49332.31;5077985;27;51282;-73
2021/11/08 12:40:01;;;;;;;;;8.33;7.33;;;;;-147.17;100.00;49328.38;5075275;27;51240;-72
2021/11/08 12:42:42;;;;;;;;;11.33;10.33;;;;;-147.17;100.00;49316.56;5076875;27;51257;-71
2021/11/08 12:45:18;;;;;;;;;10.00;8.00;;;;;-147.17;100.00;49332.31;5076741;27;51208;-72
2021/11/08 12:47:43;;;;;;;;;10.50;9.50;;;;;-147.17;100.00;49283.09;5076171;27;51349;-72
2021/11/08 12:50:10;;;;;;;;;8.67;7.67;;;;;-147.17;100.00;49249.66;5078674;27;52719;-67
2021/11/08 12:52:42;;;;;;;;;8.67;6.33;;;;;-147.17;100.00;49395.28;5075745;27;51226;-68